Time;durP1;ratioP1;P1;durP2;ratioP2;P2;SDS_P1;SDS_P2;PMS_P1;PMS_P2;Temp;Humidity;BMP_temperature;BMP_pressure;BME280_temperature;BME280_humidity;BME280_pressure;Samples;Min_cycle;Max_cycle;Signal;HPM_P1;HPM_P2
2023/05/01 00:01:45;;;;;;;10.95;7.50;;;;;;;11.07;94.10;93763.88;4785397;29;20490;-60
2023/05/01 00:04:12;;;;;;;8.87;5.67;;;;;;;11.11;93.68;93748.13;4797981;29;20425;-60
2023/05/01 00:06:39;;;;;;;9.15;5.63;;;;;;;11.12;91.97;93752.41;4785097;29;20050;-60
2023/05/01 00:09:06;;;;;;;7.38;5.55;;;;;;;11.11;92.42;93753.59;4801463;29;20106;-60
2023/05/01 00:11:36;;;;;;;7.53;5.55;;;;;;;11.07;92.99;93747.41;4800979;29;20085;-63
2023/05/01 00:14:02;;;;;;;7.45;5.60;;;;;;;11.03;92.92;93746.69;4785304;29;20526;-61
2023/05/01 00:16:30;;;;;;;8.40;5.53;;;;;;;10.88;93.25;93737.97;4801218;29;20107;-59
2023/05/01 00:18:56;;;;;;;8.52;5.38;;;;;;;10.93;93.89;93743.75;4800294;29;20484;-60
2023/05/01 00:21:23;;;;;;;7.78;5.43;;;;;;;10.98;92.94;93739.72;4784802;29;20057;-60
2023/05/01 00:23:50;;;;;;;9.50;6.10;;;;;;;10.97;93.89;93733.47;4801286;29;20135;-60
2023/05/01 00:26:17;;;;;;;9.57;6.10;;;;;;;10.85;93.87;93733.31;4801104;29;20485;-60
2023/05/01 00:28:44;;;;;;;8.37;5.70;;;;;;;10.91;93.25;93732.41;4801226;29;20057;-63
2023/05/01 00:31:10;;;;;;;8.00;5.38;;;;;;;11.02;93.17;93737.69;4801535;29;20115;-59
2023/05/01 00:33:37;;;;;;;8.68;5.80;;;;;;;11.01;93.51;93733.41;4800543;29;20051;-65
2023/05/01 00:36:04;;;;;;;7.57;5.28;;;;;;;11.01;93.21;93733.41;4801245;29;20121;-60
2023/05/01 00:38:30;;;;;;;7.85;5.40;;;;;;;11.00;93.98;93734.59;4800443;29;20058;-62
2023/05/01 00:40:57;;;;;;;7.90;5.60;;;;;;;10.97;94.17;93727.19;4785019;29;20047;-60
2023/05/01 00:43:24;;;;;;;9.38;5.88;;;;;;;10.93;93.79;93732.00;4800666;29;20397;-60
2023/05/01 00:45:51;;;;;;;8.27;5.85;;;;;;;10.84;93.56;93737.25;4800879;29;20057;-60
2023/05/01 00:48:17;;;;;;;8.15;5.38;;;;;;;10.94;92.61;93730.78;4794876;29;20062;-61
2023/05/01 00:50:45;;;;;;;8.32;5.60;;;;;;;10.87;93.61;93730.94;4800918;29;20081;-60
2023/05/01 00:53:12;;;;;;;9.07;5.77;;;;;;;10.67;95.96;93723.44;4803952;29;20123;-60
2023/05/01 00:55:40;;;;;;;8.40;5.60;;;;;;;10.93;95.51;93718.25;4804150;29;20047;-64
2023/05/01 00:58:09;;;;;;;8.43;5.93;;;;;;;10.95;95.27;93713.88;4804611;29;20046;-60
2023/05/01 01:00:35;;;;;;;9.25;5.68;;;;;;;10.98;96.09;93709.50;4803539;29;20066;-63
2023/05/01 01:03:03;;;;;;;8.05;5.70;;;;;;;11.02;96.40;93714.94;4803322;29;20054;-59
2023/05/01 01:05:34;;;;;;;8.67;5.50;;;;;;;11.00;97.19;93715.34;4804102;29;20051;-60
2023/05/01 01:08:25;;;;;;;8.85;5.40;;;;;;;11.01;96.93;93705.94;4804946;29;20055;-63
2023/05/01 01:11:00;;;;;;;8.70;6.20;;;;;;;10.89;95.58;93699.09;4803789;29;20077;-64
2023/05/01 01:13:35;;;;;;;8.73;5.90;;;;;;;10.87;94.02;93696.00;4804389;29;20054;-63
2023/05/01 01:16:20;;;;;;;9.32;5.88;;;;;;;10.87;95.46;93695.25;4804973;29;20467;-59
2023/05/01 01:19:18;;;;;;;7.77;5.57;;;;;;;10.89;98.66;93693.63;4803697;29;21217;-60
2023/05/01 01:21:53;;;;;;;8.52;5.30;;;;;;;10.84;99.03;93683.13;4804008;29;20155;-60
2023/05/01 01:24:52;;;;;;;8.70;5.88;;;;;;;10.77;99.57;93686.78;4791964;29;20312;-61
2023/05/01 01:27:42;;;;;;;8.32;5.50;;;;;;;10.79;100.00;93681.66;4804218;29;20047;-60
2023/05/01 01:30:15;;;;;;;8.18;6.00;;;;;;;10.75;100.00;93686.44;4804808;29;20497;-60
2023/05/01 01:33:10;;;;;;;8.73;5.77;;;;;;;10.60;100.00;93685.16;4803201;29;20410;-60
2023/05/01 01:35:40;;;;;;;9.05;5.70;;;;;;;10.60;100.00;93685.16;4803553;29;20126;-59
2023/05/01 01:38:22;;;;;;;8.52;6.10;;;;;;;10.62;100.00;93690.22;4803793;29;20148;-60
2023/05/01 01:41:10;;;;;;;8.32;5.90;;;;;;;10.54;100.00;93684.09;4803101;29;21855;-60
2023/05/01 01:43:42;;;;;;;7.72;5.53;;;;;;;10.27;100.00;93682.22;4803439;29;20361;-60
2023/05/01 01:46:10;;;;;;;8.80;5.57;;;;;;;10.35;100.00;93685.63;4803500;29;20062;-60
2023/05/01 01:48:42;;;;;;;8.88;5.80;;;;;;;10.37;100.00;93683.25;4803154;29;20611;-62
2023/05/01 01:51:15;;;;;;;8.07;5.53;;;;;;;10.44;100.00;93676.84;4803663;29;20055;-59
2023/05/01 01:53:48;;;;;;;7.30;5.15;;;;;;;10.56;100.00;93684.44;4802804;29;20192;-63
2023/05/01 01:56:17;;;;;;;8.45;5.90;;;;;;;10.51;100.00;93679.47;4803207;29;20049;-57
2023/05/01 01:58:46;;;;;;;8.40;5.93;;;;;;;10.51;100.00;93682.22;4803633;29;20043;-60
2023/05/01 02:01:15;;;;;;;7.80;5.60;;;;;;;10.45;100.00;93676.44;4803220;29;20057;-60
2023/05/01 02:03:45;;;;;;;8.15;5.38;;;;;;;10.42;100.00;93682.75;4799876;29;20678;-61
2023/05/01 02:06:13;;;;;;;7.97;5.53;;;;;;;10.30;100.00;93675.13;4792058;29;20051;-61
2023/05/01 02:08:42;;;;;;;9.48;5.82;;;;;;;10.33;100.00;93671.56;4787023;29;20058;-63
2023/05/01 02:11:13;;;;;;;7.43;5.07;;;;;;;10.48;100.00;93663.84;4803271;29;20063;-63
2023/05/01 02:13:41;;;;;;;7.90;5.55;;;;;;;10.55;100.00;93669.19;4802885;29;20051;-60
2023/05/01 02:16:09;;;;;;;7.90;5.45;;;;;;;10.64;100.00;93674.13;4803397;29;20051;-60
2023/05/01 02:18:37;;;;;;;13.65;8.85;;;;;;;10.55;100.00;93667.22;4802398;29;20059;-59
2023/05/01 02:21:04;;;;;;;9.80;6.70;;;;;;;10.50;100.00;93666.94;4803401;29;20045;-61
2023/05/01 02:23:32;;;;;;;8.67;5.50;;;;;;;10.40;100.00;93671.41;4802779;29;20062;-62
2023/05/01 02:26:04;;;;;;;8.00;5.15;;;;;;;10.46;100.00;93668.97;4803386;29;20502;-60
2023/05/01 02:28:33;;;;;;;7.78;5.90;;;;;;;10.52;100.00;93675.50;4786730;29;20140;-62
2023/05/01 02:31:00;;;;;;;9.65;5.68;;;;;;;10.58;100.00;93673.81;4799556;29;20097;-60
2023/05/01 02:33:27;;;;;;;8.20;5.93;;;;;;;10.57;100.00;93675.81;4780923;29;20077;-62
2023/05/01 02:35:53;;;;;;;7.53;5.70;;;;;;;10.58;100.00;93668.34;4786893;29;20054;-60
2023/05/01 02:38:20;;;;;;;10.15;5.90;;;;;;;10.58;100.00;93671.88;4802244;29;20108;-60
2023/05/01 02:40:52;;;;;;;8.85;5.75;;;;;;;10.56;100.00;93666.03;4786368;29;20105;-59
2023/05/01 02:43:21;;;;;;;8.95;6.00;;;;;;;10.57;100.00;93661.31;4802631;29;20061;-63
2023/05/01 02:45:49;;;;;;;10.73;6.85;;;;;;;10.23;100.00;93667.03;4802836;29;20538;-60
2023/05/01 02:48:20;;;;;;;10.20;6.87;;;;;;;9.50;100.00;93663.91;4802487;29;20055;-62
2023/05/01 02:50:48;;;;;;;9.10;6.80;;;;;;;9.71;100.00;93671.00;4802883;29;20498;-63
2023/05/01 02:53:16;;;;;;;11.75;7.38;;;;;;;9.59;100.00;93662.19;4786719;29;20106;-60
2023/05/01 02:55:43;;;;;;;10.15;7.22;;;;;;;9.71;100.00;93658.09;4785862;29;20121;-61
2023/05/01 02:58:17;;;;;;;12.02;7.53;;;;;;;9.84;100.00;93665.72;4802534;29;20058;-59
2023/05/01 03:00:44;;;;;;;10.40;7.60;;;;;;;10.03;100.00;93659.50;4801938;29;20749;-59
2023/05/01 03:03:11;;;;;;;11.45;7.15;;;;;;;10.12;100.00;93658.97;4802768;29;20569;-60
2023/05/01 03:05:40;;;;;;;10.48;7.40;;;;;;;10.06;100.00;93660.63;4801902;29;20307;-61
2023/05/01 03:08:07;;;;;;;10.73;7.13;;;;;;;10.10;100.00;93655.88;4802675;29;20046;-59
2023/05/01 03:10:34;;;;;;;12.25;7.90;;;;;;;10.02;100.00;93663.47;4801900;29;20069;-62
2023/05/01 03:13:00;;;;;;;11.37;7.87;;;;;;;10.04;100.00;93654.81;4786442;29;20055;-60
2023/05/01 03:15:27;;;;;;;10.45;7.25;;;;;;;9.99;100.00;93654.09;4801582;29;20050;-59
2023/05/01 03:17:54;;;;;;;12.07;8.73;;;;;;;9.61;100.00;93653.56;4802080;29;20061;-59
2023/05/01 03:20:20;;;;;;;11.55;8.38;;;;;;;9.80;100.00;93650.13;4801311;29;20047;-59
2023/05/01 03:22:47;;;;;;;11.32;8.20;;;;;;;9.78;100.00;93657.97;4802453;29;20047;-60
2023/05/01 03:25:14;;;;;;;12.70;7.80;;;;;;;9.89;100.00;93655.06;4802203;29;20436;-60
2023/05/01 03:27:41;;;;;;;12.98;7.97;;;;;;;9.71;100.00;93652.59;4801402;29;20388;-62
2023/05/01 03:30:08;;;;;;;12.95;9.20;;;;;;;9.55;100.00;93650.50;4802279;29;20416;-59
2023/05/01 03:32:35;;;;;;;10.80;7.70;;;;;;;9.64;100.00;93658.22;4801567;29;20058;-59
2023/05/01 03:35:03;;;;;;;10.57;7.88;;;;;;;9.76;100.00;93648.63;4801964;29;20043;-59
2023/05/01 03:37:29;;;;;;;13.53;8.37;;;;;;;9.82;100.00;93646.16;4801289;29;20050;-62
2023/05/01 03:39:56;;;;;;;11.48;7.28;;;;;;;9.74;100.00;93646.31;4800191;29;20208;-61
2023/05/01 03:42:23;;;;;;;11.05;7.28;;;;;;;9.76;100.00;93651.38;4801510;29;20095;-62
2023/05/01 03:44:50;;;;;;;9.98;7.40;;;;;;;9.80;100.00;93658.34;4802124;29;20185;-62
2023/05/01 03:47:18;;;;;;;10.52;7.85;;;;;;;9.77;100.00;93661.91;4800631;29;20489;-58
2023/05/01 03:49:44;;;;;;;11.43;7.10;;;;;;;9.68;100.00;93650.72;4802010;29;20416;-58
2023/05/01 03:52:11;;;;;;;11.82;7.10;;;;;;;9.73;100.00;93660.41;4801713;29;20062;-61
2023/05/01 03:54:38;;;;;;;10.57;7.70;;;;;;;9.68;100.00;93655.41;4801324;29;20172;-60
2023/05/01 03:57:06;;;;;;;9.93;7.07;;;;;;;9.57;100.00;93650.84;4801982;29;20109;-62
2023/05/01 03:59:32;;;;;;;10.73;7.45;;;;;;;9.46;100.00;93653.00;4801133;29;20057;-59
2023/05/01 04:01:59;;;;;;;11.73;7.13;;;;;;;9.55;100.00;93647.75;4801991;29;20118;-58
2023/05/01 04:04:26;;;;;;;9.68;6.80;;;;;;;9.55;100.00;93647.00;4785047;29;20457;-59
2023/05/01 04:06:52;;;;;;;10.00;6.97;;;;;;;9.56;100.00;93651.28;4801598;29;20410;-61
2023/05/01 04:09:19;;;;;;;10.32;6.97;;;;;;;9.56;100.00;93641.09;4800987;29;20057;-64
2023/05/01 04:11:46;;;;;;;10.23;7.22;;;;;;;9.60;100.00;93654.75;4801700;29;20521;-60
2023/05/01 04:14:13;;;;;;;10.10;7.10;;;;;;;9.55;100.00;93655.97;4785516;29;20055;-66
2023/05/01 04:16:40;;;;;;;10.10;7.10;;;;;;;9.42;100.00;93652.28;4801076;29;20047;-61
2023/05/01 04:19:08;;;;;;;10.23;7.40;;;;;;;9.29;100.00;93660.28;4801221;29;20068;-61
2023/05/01 04:21:34;;;;;;;10.70;7.20;;;;;;;9.08;100.00;93663.34;4800800;29;20172;-63
2023/05/01 04:24:01;;;;;;;10.80;7.65;;;;;;;9.10;100.00;93660.97;4801374;29;20069;-62
2023/05/01 04:26:28;;;;;;;9.47;6.77;;;;;;;9.12;100.00;93659.34;4800933;29;20055;-62
2023/05/01 04:28:55;;;;;;;10.43;7.53;;;;;;;9.11;100.00;93662.50;4805110;29;20073;-63
2023/05/01 04:31:21;;;;;;;11.70;7.82;;;;;;;9.04;100.00;93668.84;4788571;29;20061;-61
2023/05/01 04:33:48;;;;;;;10.55;7.20;;;;;;;9.18;100.00;93657.72;4805330;29;20051;-62
2023/05/01 04:36:15;;;;;;;10.27;7.63;;;;;;;9.30;100.00;93661.09;4805092;29;20046;-61
2023/05/01 04:38:41;;;;;;;21.60;14.10;;;;;;;9.34;100.00;93659.06;4802557;29;21603;-63
2023/05/01 04:41:08;;;;;;;14.32;9.98;;;;;;;9.36;100.00;93656.69;4804993;29;20472;-62
2023/05/01 04:43:35;;;;;;;12.07;8.30;;;;;;;9.39;100.00;93655.84;4804371;29;20047;-61
2023/05/01 04:46:03;;;;;;;10.68;7.45;;;;;;;9.46;100.00;93658.47;4804722;29;20059;-61
2023/05/01 04:48:30;;;;;;;12.48;8.45;;;;;;;9.44;100.00;93662.81;4804546;29;20051;-62
2023/05/01 04:50:57;;;;;;;11.37;7.63;;;;;;;9.53;100.00;93654.84;4804909;29;20416;-61
2023/05/01 04:53:24;;;;;;;11.55;7.50;;;;;;;9.57;100.00;93653.59;4788211;29;20055;-60
2023/05/01 04:55:50;;;;;;;11.43;7.85;;;;;;;9.62;100.00;93662.53;4788337;29;20081;-62
2023/05/01 04:58:17;;;;;;;11.10;7.50;;;;;;;9.68;100.00;93661.66;4804475;29;20061;-59
2023/05/01 05:00:43;;;;;;;11.60;7.78;;;;;;;9.65;100.00;93658.97;4804459;29;20051;-61
2023/05/01 05:03:10;;;;;;;11.03;7.67;;;;;;;9.64;100.00;93657.41;4804812;29;20058;-61
2023/05/01 05:05:37;;;;;;;11.68;7.93;;;;;;;9.67;100.00;93667.56;4804141;29;20493;-62
2023/05/01 05:08:05;;;;;;;11.98;8.48;;;;;;;9.67;100.00;93671.06;4788347;29;20046;-61
2023/05/01 05:10:31;;;;;;;11.32;8.00;;;;;;;9.77;100.00;93669.34;4804108;29;20432;-60
2023/05/01 05:12:58;;;;;;;10.82;7.95;;;;;;;9.83;100.00;93664.19;4804313;29;20053;-59
2023/05/01 05:15:25;;;;;;;11.13;7.30;;;;;;;9.90;100.00;93670.31;4803933;29;20085;-60
2023/05/01 05:17:51;;;;;;;13.85;8.27;;;;;;;9.89;100.00;93668.00;4787750;29;20054;-60
2023/05/01 05:20:21;;;;;;;10.98;8.15;;;;;;;9.99;100.00;93659.56;4787369;29;20050;-60
2023/05/01 05:22:48;;;;;;;11.70;8.55;;;;;;;9.55;100.00;93671.66;4804046;29;20428;-62
2023/05/01 05:25:15;;;;;;;12.68;8.43;;;;;;;9.11;100.00;93666.00;4804502;29;20098;-61
2023/05/01 05:27:43;;;;;;;12.13;7.83;;;;;;;9.51;100.00;93677.19;4804163;29;20074;-60
2023/05/01 05:30:10;;;;;;;11.35;7.60;;;;;;;9.62;100.00;93673.50;4804225;29;20081;-62
2023/05/01 05:32:36;;;;;;;12.52;8.60;;;;;;;9.33;100.00;93674.69;4803943;29;20054;-60
2023/05/01 05:35:04;;;;;;;12.27;8.60;;;;;;;9.47;100.00;93672.94;4804016;29;20088;-60
2023/05/01 05:37:31;;;;;;;11.88;8.27;;;;;;;9.60;100.00;93673.94;4803570;29;20058;-62
2023/05/01 05:39:57;;;;;;;13.83;8.20;;;;;;;9.71;100.00;93674.53;4804055;29;20053;-60
2023/05/01 05:42:24;;;;;;;11.85;8.40;;;;;;;9.82;100.00;93679.06;4803568;29;20118;-60
2023/05/01 05:44:51;;;;;;;11.48;8.18;;;;;;;9.91;100.00;93671.84;4804130;29;20050;-59
2023/05/01 05:47:18;;;;;;;11.98;8.63;;;;;;;9.93;100.00;93672.22;4803194;29;20475;-60
2023/05/01 05:49:45;;;;;;;12.20;8.23;;;;;;;10.05;100.00;93667.34;4803690;29;20059;-59
2023/05/01 05:52:12;;;;;;;11.27;8.10;;;;;;;10.08;100.00;93663.75;4803400;29;20047;-60
2023/05/01 05:54:38;;;;;;;11.65;8.65;;;;;;;10.14;100.00;93667.53;4803454;29;20051;-59
2023/05/01 05:57:05;;;;;;;11.48;8.48;;;;;;;10.25;100.00;93665.41;4803698;29;20069;-62
2023/05/01 05:59:32;;;;;;;12.15;8.35;;;;;;;10.26;100.00;93664.22;4803185;29;20103;-59
2023/05/01 06:01:59;;;;;;;12.85;8.80;;;;;;;9.85;100.00;93670.00;4803429;29;20070;-59
2023/05/01 06:04:26;;;;;;;12.83;9.10;;;;;;;9.55;100.00;93677.13;4802711;29;20051;-61
2023/05/01 06:06:53;;;;;;;12.82;8.95;;;;;;;9.77;100.00;93670.13;4787076;29;20490;-60
2023/05/01 06:09:20;;;;;;;11.30;8.40;;;;;;;9.83;100.00;93675.91;4801339;29;20051;-59
2023/05/01 06:11:47;;;;;;;13.85;8.93;;;;;;;9.77;100.00;93674.84;4803706;29;20057;-60
2023/05/01 06:14:15;;;;;;;14.18;9.20;;;;;;;9.54;100.00;93676.38;4803357;29;20055;-61
2023/05/01 06:16:42;;;;;;;15.17;9.63;;;;;;;9.00;100.00;93670.88;4791251;29;20900;-60
2023/05/01 06:19:11;;;;;;;14.75;9.70;;;;;;;9.03;100.00;93669.25;4803019;29;20059;-59
2023/05/01 06:21:37;;;;;;;14.35;9.80;;;;;;;9.30;100.00;93672.03;4803042;29;20055;-59
2023/05/01 06:24:05;;;;;;;14.57;9.88;;;;;;;9.49;100.00;93674.06;4803018;29;20428;-62
2023/05/01 06:26:31;;;;;;;14.27;9.65;;;;;;;9.71;100.00;93663.56;4802393;29;20073;-61
2023/05/01 06:28:58;;;;;;;14.30;9.53;;;;;;;9.91;100.00;93669.13;4802751;29;20714;-62
2023/05/01 06:31:25;;;;;;;15.75;10.07;;;;;;;10.20;100.00;93676.84;4786461;29;20435;-60
2023/05/01 06:33:52;;;;;;;14.70;10.55;;;;;;;10.28;100.00;93664.56;4787153;29;20511;-59
2023/05/01 06:36:19;;;;;;;14.00;9.93;;;;;;;10.10;100.00;93666.84;4802599;29;20112;-60
2023/05/01 06:38:48;;;;;;;14.20;10.05;;;;;;;10.03;100.00;93669.72;4802724;29;20054;-61
2023/05/01 06:41:15;;;;;;;13.67;10.17;;;;;;;10.15;100.00;93671.84;4802616;29;20043;-63
2023/05/01 06:43:41;;;;;;;15.55;9.98;;;;;;;9.78;100.00;93679.13;4801768;29;20294;-61
2023/05/01 06:46:08;;;;;;;16.15;10.63;;;;;;;9.54;100.00;93679.09;4802628;29;20054;-62
2023/05/01 06:48:35;;;;;;;14.60;10.50;;;;;;;9.96;100.00;93681.56;4802267;29;20043;-60
2023/05/01 06:51:02;;;;;;;16.08;10.40;;;;;;;10.12;100.00;93678.16;4802227;29;20069;-59
2023/05/01 06:53:29;;;;;;;14.57;9.90;;;;;;;10.24;100.00;93683.06;4786318;29;20054;-59
2023/05/01 06:55:55;;;;;;;12.63;8.95;;;;;;;10.71;100.00;93679.47;4786307;29;20085;-60
2023/05/01 06:58:22;;;;;;;14.45;10.07;;;;;;;10.51;100.00;93687.69;4802021;29;20128;-62
2023/05/01 07:00:51;;;;;;;12.93;9.43;;;;;;;11.00;100.00;93682.41;4802272;29;20073;-60
2023/05/01 07:03:18;;;;;;;12.95;9.43;;;;;;;11.05;100.00;93681.91;4801943;29;20734;-61
2023/05/01 07:05:45;;;;;;;12.30;8.83;;;;;;;11.35;100.00;93683.63;4786509;29;20516;-60
2023/05/01 07:08:13;;;;;;;13.38;9.70;;;;;;;11.30;100.00;93683.34;4801003;29;20047;-61
2023/05/01 07:10:40;;;;;;;13.60;10.13;;;;;;;11.14;100.00;93684.84;4802061;29;20053;-61
2023/05/01 07:13:08;;;;;;;13.73;9.98;;;;;;;11.72;100.00;93684.34;4802403;29;20057;-61
2023/05/01 07:15:35;;;;;;;13.68;9.52;;;;;;;12.61;100.00;93682.59;4785462;29;20064;-62
2023/05/01 07:18:04;;;;;;;12.47;8.90;;;;;;;12.55;100.00;93674.84;4802374;29;20057;-61
2023/05/01 07:20:32;;;;;;;14.88;9.70;;;;;;;12.73;100.00;93682.63;4801437;29;20684;-62
2023/05/01 07:22:59;;;;;;;13.27;9.48;;;;;;;13.65;100.00;93677.66;4802301;29;20103;-63
2023/05/01 07:25:25;;;;;;;12.23;8.80;;;;;;;14.24;100.00;93666.34;4801512;29;20540;-61
2023/05/01 07:27:53;;;;;;;10.55;8.35;;;;;;;13.82;100.00;93674.78;4802230;29;20054;-61
2023/05/01 07:30:20;;;;;;;12.60;9.73;;;;;;;12.56;100.00;93678.41;4801534;29;20050;-63
2023/05/01 07:32:47;;;;;;;11.85;8.98;;;;;;;12.47;100.00;93678.22;4801973;29;20057;-60
2023/05/01 07:35:14;;;;;;;13.20;9.70;;;;;;;12.85;100.00;93674.84;4801985;29;20047;-61
2023/05/01 07:37:40;;;;;;;12.40;9.30;;;;;;;13.76;100.00;93677.31;4801377;29;20151;-62
2023/05/01 07:40:07;;;;;;;12.77;8.88;;;;;;;14.71;100.00;93679.38;4801621;29;20043;-61
2023/05/01 07:42:35;;;;;;;11.27;8.77;;;;;;;13.22;100.00;93681.69;4785379;29;20039;-63
2023/05/01 07:45:02;;;;;;;11.93;9.30;;;;;;;13.57;100.00;93674.34;4801691;29;20065;-61
2023/05/01 07:47:28;;;;;;;12.50;9.43;;;;;;;14.50;100.00;93669.78;4800942;29;20043;-61
2023/05/01 07:49:56;;;;;;;11.45;9.07;;;;;;;14.54;100.00;93673.19;4801801;29;20070;-61
2023/05/01 07:52:23;;;;;;;11.07;9.07;;;;;;;14.16;100.00;93680.34;4801193;29;20055;-64
2023/05/01 07:54:50;;;;;;;11.13;8.77;;;;;;;14.22;100.00;93677.81;4802422;29;20050;-62
2023/05/01 07:57:17;;;;;;;12.50;9.55;;;;;;;12.30;100.00;93683.78;4801547;29;20047;-61
2023/05/01 07:59:44;;;;;;;12.30;9.30;;;;;;;13.04;100.00;93675.88;4802058;29;20042;-61
2023/05/01 08:02:12;;;;;;;13.43;9.75;;;;;;;11.97;100.00;93680.25;4801267;29;20053;-61
2023/05/01 08:04:40;;;;;;;13.80;9.93;;;;;;;11.80;100.00;93685.75;4801529;29;20053;-60
2023/05/01 08:07:07;;;;;;;12.17;9.40;;;;;;;12.46;100.00;93690.47;4801836;29;20386;-60
2023/05/01 08:09:34;;;;;;;11.98;9.00;;;;;;;13.25;100.00;93688.28;4801381;29;20063;-60
2023/05/01 08:12:02;;;;;;;11.40;8.52;;;;;;;13.48;100.00;93682.50;4801826;29;20054;-63
2023/05/01 08:14:29;;;;;;;11.55;7.70;;;;;;;13.57;100.00;93682.63;4801405;29;20039;-63
2023/05/01 08:16:56;;;;;;;12.27;8.90;;;;;;;13.30;100.00;93690.53;4785597;29;20046;-61
2023/05/01 08:19:23;;;;;;;11.73;8.30;;;;;;;12.63;100.00;93678.19;4800739;29;20194;-63
2023/05/01 08:21:50;;;;;;;11.77;8.80;;;;;;;12.17;100.00;93686.47;4801643;29;20110;-60
2023/05/01 08:24:16;;;;;;;12.05;8.90;;;;;;;12.23;100.00;93691.44;4801256;29;20122;-59
2023/05/01 08:26:43;;;;;;;12.70;9.55;;;;;;;11.91;100.00;93696.53;4785361;29;20405;-60
2023/05/01 08:29:10;;;;;;;15.07;10.10;;;;;;;11.78;100.00;93698.38;4801833;29;20050;-60
2023/05/01 08:31:38;;;;;;;14.53;10.07;;;;;;;11.52;100.00;93695.41;4801074;29;20051;-62
2023/05/01 08:34:05;;;;;;;13.75;9.88;;;;;;;11.13;100.00;93699.03;4785607;29;20055;-60
2023/05/01 08:36:31;;;;;;;14.02;9.60;;;;;;;11.35;100.00;93702.88;4801150;29;20055;-59
2023/05/01 08:38:58;;;;;;;13.18;9.70;;;;;;;10.97;100.00;93699.75;4801740;29;20058;-59
2023/05/01 08:41:27;;;;;;;14.73;10.30;;;;;;;11.02;100.00;93704.72;4801046;29;20050;-60
2023/05/01 08:43:57;;;;;;;14.53;10.10;;;;;;;10.51;100.00;93695.94;4801598;29;20067;-62
2023/05/01 08:46:47;;;;;;;14.27;11.05;;;;;;;10.52;100.00;93703.75;4800988;29;20058;-61
2023/05/01 08:49:15;;;;;;;14.57;9.77;;;;;;;10.96;100.00;93703.66;4785308;29;20059;-62
2023/05/01 08:51:48;;;;;;;13.85;9.60;;;;;;;11.26;100.00;93708.16;4800825;29;20054;-64
2023/05/01 08:54:18;;;;;;;13.73;9.90;;;;;;;11.17;100.00;93710.72;4801646;29;20046;-62
2023/05/01 08:56:51;;;;;;;12.40;9.33;;;;;;;11.03;100.00;93700.00;4800811;29;20788;-61
2023/05/01 08:59:19;;;;;;;12.52;9.35;;;;;;;11.34;100.00;93709.53;4801133;29;20055;-62
2023/05/01 09:01:46;;;;;;;15.05;10.65;;;;;;;10.90;100.00;93708.13;4799543;29;20043;-62
2023/05/01 09:04:15;;;;;;;12.55;9.00;;;;;;;11.51;100.00;93693.88;4801298;29;20069;-65
2023/05/01 09:06:43;;;;;;;13.65;9.80;;;;;;;11.65;100.00;93700.25;4800139;29;20877;-63
2023/05/01 09:09:10;;;;;;;14.23;9.90;;;;;;;11.89;100.00;93704.44;4800822;29;20096;-61
2023/05/01 09:11:38;;;;;;;14.52;9.93;;;;;;;11.86;100.00;93704.47;4800487;29;20051;-60
2023/05/01 09:14:05;;;;;;;20.60;12.27;;;;;;;12.10;100.00;93703.13;4803518;29;20463;-60
2023/05/01 09:16:31;;;;;;;15.55;9.55;;;;;;;12.17;100.00;93708.47;4804062;29;20077;-63
2023/05/01 09:18:58;;;;;;;13.23;8.80;;;;;;;12.13;100.00;93704.25;4804429;29;20055;-60
2023/05/01 09:21:30;;;;;;;13.43;9.20;;;;;;;11.41;100.00;93708.63;4804114;29;20376;-62
2023/05/01 09:23:57;;;;;;;12.77;8.80;;;;;;;11.55;100.00;93713.03;4788251;29;20067;-61
2023/05/01 09:26:25;;;;;;;10.68;7.80;;;;;;;11.62;100.00;93718.38;4804162;29;20050;-60
2023/05/01 09:28:56;;;;;;;11.77;8.55;;;;;;;11.57;100.00;93713.41;4804382;29;20059;-62
2023/05/01 09:31:28;;;;;;;10.73;8.25;;;;;;;11.89;100.00;93714.63;4804137;29;20501;-60
2023/05/01 09:33:56;;;;;;;9.87;7.40;;;;;;;11.99;100.00;93716.34;4788425;29;20047;-64
2023/05/01 09:36:29;;;;;;;11.70;8.30;;;;;;;11.98;100.00;93715.59;4803863;29;20121;-63
2023/05/01 09:38:57;;;;;;;8.90;6.45;;;;;;;12.16;100.00;93714.41;4804329;29;20086;-62
2023/05/01 09:41:23;;;;;;;8.25;5.75;;;;;;;12.34;100.00;93720.22;4803336;29;20051;-62
2023/05/01 09:43:55;;;;;;;9.25;6.10;;;;;;;12.46;100.00;93720.75;4804219;29;20110;-61
2023/05/01 09:46:24;;;;;;;9.77;6.57;;;;;;;12.55;100.00;93723.63;4803515;29;20047;-60
2023/05/01 09:48:52;;;;;;;9.30;6.50;;;;;;;12.32;100.00;93719.13;4804249;29;20059;-60
2023/05/01 09:51:21;;;;;;;12.48;6.93;;;;;;;12.57;100.00;93723.97;4803784;29;20051;-60
2023/05/01 09:53:48;;;;;;;8.90;6.68;;;;;;;12.73;100.00;93725.91;4788008;29;20090;-60
2023/05/01 09:56:15;;;;;;;8.90;6.30;;;;;;;12.68;100.00;93726.47;4804102;29;20087;-60
2023/05/01 09:58:41;;;;;;;8.77;6.40;;;;;;;12.73;100.00;93721.19;4803426;29;20073;-60
2023/05/01 10:01:09;;;;;;;8.25;5.93;;;;;;;12.80;100.00;93723.00;4801914;29;20420;-61
2023/05/01 10:03:36;;;;;;;8.82;5.90;;;;;;;12.61;100.00;93727.41;4787387;29;20122;-60
2023/05/01 10:06:03;;;;;;;7.35;5.88;;;;;;;12.48;100.00;93732.84;4804030;29;20083;-60
2023/05/01 10:08:47;;;;;;;7.65;5.70;;;;;;;12.19;100.00;93732.78;4803289;29;20054;-60
2023/05/01 10:11:14;;;;;;;8.07;5.57;;;;;;;12.55;100.00;93729.91;4803926;29;20054;-64
2023/05/01 10:13:41;;;;;;;7.93;6.00;;;;;;;11.98;100.00;93729.34;4802879;29;20786;-60
2023/05/01 10:16:27;;;;;;;8.63;6.40;;;;;;;11.96;100.00;93736.47;4803917;29;20123;-62
2023/05/01 10:18:58;;;;;;;10.23;6.55;;;;;;;11.96;100.00;93741.97;4802375;29;20401;-59
2023/05/01 10:21:27;;;;;;;8.27;6.18;;;;;;;12.30;100.00;93735.28;4803017;29;20059;-60
2023/05/01 10:23:54;;;;;;;8.23;5.80;;;;;;;12.19;100.00;93730.03;4786540;29;20050;-60
2023/05/01 10:26:21;;;;;;;9.00;6.43;;;;;;;12.44;100.00;93736.91;4785755;29;20055;-61
2023/05/01 10:28:48;;;;;;;8.25;6.28;;;;;;;12.84;100.00;93731.13;4803087;29;20438;-60
2023/05/01 10:31:15;;;;;;;8.18;6.25;;;;;;;12.93;100.00;93726.53;4803371;29;20446;-60
2023/05/01 10:33:44;;;;;;;9.68;6.72;;;;;;;12.84;100.00;93737.44;4801619;29;20289;-61
2023/05/01 10:36:17;;;;;;;10.77;7.67;;;;;;;12.82;100.00;93745.34;4803011;29;20055;-63
2023/05/01 10:38:47;;;;;;;7.85;5.93;;;;;;;12.64;100.00;93732.06;4802366;29;20692;-60
2023/05/01 10:41:17;;;;;;;7.90;6.07;;;;;;;12.61;100.00;93735.66;4802897;29;20122;-63
2023/05/01 10:43:44;;;;;;;7.60;5.50;;;;;;;12.89;100.00;93725.88;4802292;29;20059;-63
2023/05/01 10:46:20;;;;;;;8.25;6.22;;;;;;;13.51;100.00;93727.72;4802858;29;20062;-60
2023/05/01 10:48:50;;;;;;;6.50;5.00;;;;;;;13.58;100.00;93725.53;4802100;29;20633;-60
2023/05/01 10:51:21;;;;;;;8.05;4.95;;;;;;;13.49;100.00;93727.38;4802958;29;20489;-58
2023/05/01 10:54:23;;;;;;;6.50;5.03;;;;;;;13.59;100.00;93723.53;4803061;29;20495;-60
2023/05/01 10:56:50;;;;;;;6.97;5.10;;;;;;;13.97;100.00;93714.50;4790847;29;20277;-63
2023/05/01 10:59:17;;;;;;;6.78;4.55;;;;;;;13.76;100.00;93716.72;4786680;29;20051;-58
2023/05/01 11:01:46;;;;;;;6.90;4.93;;;;;;;13.56;100.00;93714.16;4803091;29;20430;-60
2023/05/01 11:04:23;;;;;;;8.13;5.88;;;;;;;14.28;100.00;93711.91;4803100;29;20493;-59
2023/05/01 11:06:56;;;;;;;7.60;5.30;;;;;;;14.19;100.00;93715.34;4801560;29;20745;-60
2023/05/01 11:09:41;;;;;;;6.32;4.60;;;;;;;15.14;100.00;93711.75;4801690;29;20067;-62
2023/05/01 11:12:10;;;;;;;7.25;5.07;;;;;;;15.12;100.00;93710.69;4801384;29;20073;-62
2023/05/01 11:15:04;;;;;;;5.77;3.80;;;;;;;15.81;100.00;93714.47;4798912;29;20082;-61
2023/05/01 11:17:40;;;;;;;5.00;4.00;;;;;;;15.94;100.00;93710.38;4799910;29;20462;-65
2023/05/01 11:20:09;;;;;;;5.00;3.80;;;;;;;15.25;100.00;93703.09;4801945;29;20183;-61
2023/05/01 11:22:41;;;;;;;4.97;3.85;;;;;;;15.08;100.00;93705.28;4801845;29;20055;-61
2023/05/01 11:25:29;;;;;;;5.00;3.40;;;;;;;14.57;100.00;93705.50;4802153;29;20545;-61
2023/05/01 11:27:58;;;;;;;4.50;3.27;;;;;;;14.86;100.00;93710.03;4801561;29;21011;-65
2023/05/01 11:30:25;;;;;;;5.38;3.30;;;;;;;14.50;100.00;93708.44;4802057;29;20420;-62
2023/05/01 11:32:52;;;;;;;5.07;3.40;;;;;;;14.05;100.00;93704.78;4802156;29;20062;-64